createdAt,value
2023-10-27T00:01:51.015Z,98436.40
2023-10-27T00:04:19.082Z,98438.60
2023-10-27T00:06:47.136Z,98435.00
2023-10-27T00:09:15.101Z,98431.60
2023-10-27T00:11:43.173Z,98420.00
2023-10-27T00:14:11.285Z,98418.80
2023-10-27T00:16:39.137Z,98424.60
2023-10-27T00:19:07.118Z,98424.40
2023-10-27T00:21:35.645Z,98415.40
2023-10-27T00:24:03.865Z,98406.80
2023-10-27T00:26:31.713Z,98402.80
2023-10-27T00:28:59.781Z,98401.00
2023-10-27T00:31:31.387Z,98401.40
2023-10-27T00:34:00.701Z,98401.60
2023-10-27T00:36:28.900Z,98406.20
2023-10-27T00:38:56.821Z,98409.60
2023-10-27T00:41:25.431Z,98409.40
2023-10-27T00:43:53.367Z,98412.20
2023-10-27T00:46:21.499Z,98409.00
2023-10-27T00:48:50.101Z,98411.20
2023-10-27T00:51:18.129Z,98415.60
2023-10-27T00:53:46.359Z,98415.00
2023-10-27T00:56:14.339Z,98409.00
2023-10-27T00:58:42.307Z,98412.20
2023-10-27T01:01:14.099Z,98407.80
2023-10-27T01:03:45.483Z,98411.20
2023-10-27T01:06:13.432Z,98411.00
2023-10-27T01:08:41.794Z,98403.00
2023-10-27T01:11:10.596Z,98401.00
2023-10-27T01:13:38.541Z,98399.20
2023-10-27T01:16:07.113Z,98402.20
2023-10-27T01:18:34.923Z,98399.00
2023-10-27T01:21:03.342Z,98395.60
2023-10-27T01:23:31.184Z,98395.00
2023-10-27T01:25:59.123Z,98394.80
2023-10-27T01:28:27.611Z,98395.80
2023-10-27T01:30:56.258Z,98393.60
2023-10-27T01:33:25.178Z,98393.20
2023-10-27T01:35:55.790Z,98388.40
2023-10-27T01:38:23.706Z,98390.60
2023-10-27T01:40:52.135Z,98388.40
2023-10-27T01:43:20.157Z,98392.60
2023-10-27T01:45:48.130Z,98390.60
2023-10-27T01:48:15.993Z,98387.60
2023-10-27T01:50:43.996Z,98384.20
2023-10-27T01:53:11.869Z,98382.40
2023-10-27T01:55:39.909Z,98379.00
2023-10-27T01:58:07.948Z,98376.80
2023-10-27T02:00:36.029Z,98378.60
2023-10-27T02:03:04.364Z,98371.40
2023-10-27T02:05:32.410Z,98370.20
2023-10-27T02:08:01.385Z,98371.40
2023-10-27T02:10:29.253Z,98369.80
2023-10-27T02:12:57.551Z,98364.40
2023-10-27T02:15:25.489Z,98368.80
2023-10-27T02:17:53.322Z,98366.00
2023-10-27T02:20:21.500Z,98366.40
2023-10-27T02:22:49.344Z,98364.20
2023-10-27T02:25:17.449Z,98373.80
2023-10-27T02:27:45.309Z,98369.60
2023-10-27T02:30:13.426Z,98370.00
2023-10-27T02:32:41.504Z,98373.00
2023-10-27T02:35:11.709Z,98372.60
2023-10-27T02:37:39.940Z,98368.20
2023-10-27T02:40:08.824Z,98373.80
2023-10-27T02:42:40.751Z,98372.80
2023-10-27T02:45:09.933Z,98371.80
2023-10-27T02:47:37.909Z,98365.20
2023-10-27T02:50:06.291Z,98362.20
2023-10-27T02:52:34.358Z,98365.80
2023-10-27T02:55:02.336Z,98362.60
2023-10-27T02:57:30.256Z,98356.40
2023-10-27T02:59:58.649Z,98356.00
2023-10-27T03:02:28.686Z,98356.00
2023-10-27T03:04:57.635Z,98353.20
2023-10-27T03:07:25.954Z,98351.00
2023-10-27T03:09:53.855Z,98353.80
2023-10-27T03:12:21.846Z,98352.80
2023-10-27T03:14:50.344Z,98349.80
2023-10-27T03:17:18.303Z,98342.60
2023-10-27T03:19:47.008Z,98340.40
2023-10-27T03:22:15.157Z,98344.80
2023-10-27T03:24:43.082Z,98346.40
2023-10-27T03:27:10.861Z,98342.40
2023-10-27T03:29:38.731Z,98339.40
2023-10-27T03:32:08.213Z,98335.60
2023-10-27T03:34:36.652Z,98331.00
2023-10-27T03:37:05.387Z,98324.60
2023-10-27T03:39:33.925Z,98315.80
2023-10-27T03:42:02.137Z,98309.40
2023-10-27T03:44:31.325Z,98313.80
2023-10-27T03:46:59.675Z,98313.80
2023-10-27T03:49:28.762Z,98310.60
2023-10-27T03:51:57.459Z,98307.80
2023-10-27T03:54:25.298Z,98307.40
2023-10-27T03:56:53.157Z,98304.40
2023-10-27T03:59:21.185Z,98315.00
2023-10-27T04:01:50.882Z,98319.80
2023-10-27T04:04:18.867Z,98330.00
2023-10-27T04:06:47.391Z,98329.40
2023-10-27T04:09:15.189Z,98329.80
2023-10-27T04:11:44.509Z,98329.60
2023-10-27T04:14:12.451Z,98334.00
2023-10-27T04:16:40.535Z,98333.80
2023-10-27T04:19:08.732Z,98333.80
2023-10-27T04:21:36.562Z,98337.60
2023-10-27T04:24:05.259Z,98344.60
2023-10-27T04:26:33.111Z,98347.20
2023-10-27T04:29:00.903Z,98342.20
2023-10-27T04:31:29.064Z,98340.00
2023-10-27T04:33:57.724Z,98339.40
2023-10-27T04:36:25.878Z,98339.40
2023-10-27T04:38:53.795Z,98343.40
2023-10-27T04:41:21.662Z,98338.60
2023-10-27T04:43:49.606Z,98332.80
2023-10-27T04:46:17.522Z,98333.80
2023-10-27T04:48:45.382Z,98340.00
2023-10-27T04:51:13.216Z,98346.20
2023-10-27T04:53:42.074Z,98342.00
2023-10-27T04:56:09.916Z,98340.20
2023-10-27T04:58:40.005Z,98338.40
2023-10-27T05:01:07.972Z,98338.20
2023-10-27T05:03:36.437Z,98336.00
2023-10-27T05:06:11.646Z,98344.20
2023-10-27T05:08:39.633Z,98346.00
2023-10-27T05:11:07.658Z,98350.40
2023-10-27T05:13:35.834Z,98354.60
2023-10-27T05:16:05.788Z,98351.60
2023-10-27T05:18:33.744Z,98357.80
2023-10-27T05:21:01.923Z,98357.60
2023-10-27T05:23:29.850Z,98355.60
2023-10-27T05:25:57.720Z,98350.20
2023-10-27T05:28:26.775Z,98355.80
2023-10-27T05:30:54.932Z,98359.20
2023-10-27T05:33:22.810Z,98362.60
2023-10-27T05:35:50.719Z,98364.20
2023-10-27T05:38:19.894Z,98370.40
2023-10-27T05:40:47.826Z,98371.60
2023-10-27T05:43:18.506Z,98375.00
2023-10-27T05:45:47.550Z,98369.80
2023-10-27T05:48:15.923Z,98372.00
2023-10-27T05:50:43.900Z,98377.20
2023-10-27T05:53:12.068Z,98378.40
2023-10-27T05:55:40.091Z,98381.40
2023-10-27T05:58:09.228Z,98385.80
2023-10-27T06:00:38.359Z,98381.60
2023-10-27T06:03:06.328Z,98386.40
2023-10-27T06:05:34.497Z,98391.40
2023-10-27T06:08:05.087Z,98398.80
2023-10-27T06:10:33.078Z,98397.20
2023-10-27T06:13:01.461Z,98398.40
2023-10-27T06:15:29.388Z,98397.80
2023-10-27T06:17:57.310Z,98399.60
2023-10-27T06:20:26.440Z,98401.80
2023-10-27T06:22:54.400Z,98397.20
2023-10-27T06:25:26.992Z,98399.40
2023-10-27T06:27:56.885Z,98407.00
2023-10-27T06:30:25.168Z,98407.40
2023-10-27T06:32:53.187Z,98405.80
2023-10-27T06:35:21.092Z,98411.60
2023-10-27T06:37:48.994Z,98404.20
2023-10-27T06:40:17.161Z,98405.60
2023-10-27T06:42:45.140Z,98400.80
2023-10-27T06:45:13.013Z,98402.80
2023-10-27T06:47:41.719Z,98403.80
2023-10-27T06:50:10.994Z,98408.80
2023-10-27T06:52:40.494Z,98413.80
2023-10-27T06:55:09.191Z,98411.80
2023-10-27T06:57:38.742Z,98410.60
2023-10-27T07:00:08.279Z,98402.20
2023-10-27T07:02:45.777Z,98398.00
2023-10-27T07:05:24.919Z,98398.60
2023-10-27T07:07:54.144Z,98397.80
2023-10-27T07:10:22.597Z,98394.40
2023-10-27T07:12:50.627Z,98393.80
2023-10-27T07:15:20.806Z,98388.00
2023-10-27T07:17:49.068Z,98387.80
2023-10-27T07:20:17.294Z,98387.40
2023-10-27T07:22:45.455Z,98384.00
2023-10-27T07:25:13.475Z,98385.40
2023-10-27T07:27:41.514Z,98386.00
2023-10-27T07:30:10.055Z,98386.80
2023-10-27T07:32:39.505Z,98385.60
2023-10-27T07:35:09.721Z,98386.20
2023-10-27T07:37:37.736Z,98388.20
2023-10-27T07:40:08.004Z,98387.20
2023-10-27T07:42:35.949Z,98387.20
2023-10-27T07:45:05.357Z,98390.80
2023-10-27T07:47:33.803Z,98387.40
2023-10-27T07:50:02.164Z,98384.20
2023-10-27T07:52:30.247Z,98381.80
2023-10-27T07:54:58.336Z,98381.00
2023-10-27T07:57:26.358Z,98390.80
2023-10-27T07:59:54.218Z,98390.40
2023-10-27T08:02:22.164Z,98391.00
2023-10-27T08:04:50.075Z,98385.60
2023-10-27T08:07:18.021Z,98384.80
2023-10-27T08:09:46.103Z,98390.80
2023-10-27T08:12:14.062Z,98396.20
2023-10-27T08:14:41.949Z,98402.60
2023-10-27T08:17:09.808Z,98398.00
2023-10-27T08:19:40.888Z,98404.40
2023-10-27T08:22:09.040Z,98399.00
2023-10-27T08:24:38.017Z,98402.20
2023-10-27T08:27:06.247Z,98406.00
2023-10-27T08:29:34.385Z,98406.40
2023-10-27T08:32:02.308Z,98408.60
2023-10-27T08:34:30.391Z,98410.60
2023-10-27T08:36:58.466Z,98413.80
2023-10-27T08:39:26.928Z,98409.80
2023-10-27T08:41:55.390Z,98403.00
2023-10-27T08:44:28.379Z,98406.00
2023-10-27T08:46:58.292Z,98399.80
2023-10-27T08:49:26.523Z,98396.60
2023-10-27T08:51:54.448Z,98396.80
2023-10-27T08:54:23.403Z,98396.20
2023-10-27T08:56:51.407Z,98390.60
2023-10-27T08:59:19.254Z,98394.20
2023-10-27T09:01:47.305Z,98394.00
2023-10-27T09:04:20.736Z,98399.60
2023-10-27T09:06:49.025Z,98399.40
2023-10-27T09:09:20.240Z,98394.40
2023-10-27T09:11:50.449Z,98396.00
2023-10-27T09:14:31.354Z,98398.20
2023-10-27T09:17:14.593Z,98392.80
2023-10-27T09:19:45.487Z,98394.80
2023-10-27T09:22:21.731Z,98395.60
2023-10-27T09:24:53.730Z,98385.00
2023-10-27T09:27:29.224Z,98387.00
2023-10-27T09:29:57.193Z,98390.60
2023-10-27T09:32:27.015Z,98388.20
2023-10-27T09:35:19.138Z,98384.00
2023-10-27T09:37:51.628Z,98382.20
2023-10-27T09:40:19.727Z,98386.60
2023-10-27T09:42:53.519Z,98378.20
2023-10-27T09:45:25.692Z,98375.80
2023-10-27T09:48:03.478Z,98371.40
2023-10-27T09:50:32.636Z,98366.80
2023-10-27T09:53:02.390Z,98370.80
2023-10-27T09:55:32.319Z,98371.80
2023-10-27T09:58:02.462Z,98367.80
2023-10-27T10:00:33.207Z,98368.40
2023-10-27T10:03:04.583Z,98367.20
2023-10-27T10:06:15.388Z,98366.20
2023-10-27T10:09:11.794Z,98362.40
2023-10-27T10:11:52.304Z,98359.80
2023-10-27T10:14:38.533Z,98357.40
2023-10-27T10:17:06.569Z,98350.20
2023-10-27T10:19:52.087Z,98349.20
2023-10-27T10:22:52.985Z,98341.80
2023-10-27T10:25:20.892Z,98340.60
2023-10-27T10:28:11.077Z,98335.60
2023-10-27T10:30:40.791Z,98336.00
2023-10-27T10:33:21.816Z,98332.40
2023-10-27T10:35:51.451Z,98328.20
2023-10-27T10:38:25.420Z,98322.20
2023-10-27T10:40:56.672Z,98322.00
2023-10-27T10:43:30.260Z,98321.00
2023-10-27T10:46:00.467Z,98314.40
2023-10-27T10:48:32.716Z,98316.60
2023-10-27T10:51:38.800Z,98326.20
2023-10-27T10:54:14.056Z,98333.20
2023-10-27T10:56:41.909Z,98332.60
2023-10-27T10:59:19.994Z,98328.00
2023-10-27T11:01:56.406Z,98328.40
2023-10-27T11:04:42.232Z,98330.60
2023-10-27T11:07:10.766Z,98329.60
2023-10-27T11:09:39.245Z,98330.20
2023-10-27T11:12:24.461Z,98330.80
2023-10-27T11:14:52.511Z,98326.00
2023-10-27T11:17:20.321Z,98323.60
2023-10-27T11:19:56.250Z,98323.60
2023-10-27T11:22:26.535Z,98314.60
2023-10-27T11:24:55.391Z,98315.80
2023-10-27T11:27:25.708Z,98308.20
2023-10-27T11:30:01.835Z,98308.60
2023-10-27T11:32:30.229Z,98305.40
2023-10-27T11:34:59.449Z,98304.00
2023-10-27T11:37:30.740Z,98298.40
2023-10-27T11:40:14.710Z,98302.60
2023-10-27T11:42:42.880Z,98299.80
2023-10-27T11:45:10.874Z,98300.00
2023-10-27T11:47:38.852Z,98300.20
2023-10-27T11:50:08.112Z,98302.40
2023-10-27T11:52:37.190Z,98302.40
2023-10-27T11:55:06.517Z,98298.40
2023-10-27T11:57:34.460Z,98294.20
2023-10-27T12:00:02.243Z,98285.60
2023-10-27T12:02:38.878Z,98282.80
2023-10-27T12:05:09.624Z,98280.60
2023-10-27T12:07:39.127Z,98280.00
2023-10-27T12:10:11.823Z,98273.00
2023-10-27T12:12:40.365Z,98267.80
2023-10-27T12:15:09.246Z,98268.20
2023-10-27T12:17:37.101Z,98266.20
2023-10-27T12:20:07.971Z,98261.20
2023-10-27T12:22:35.859Z,98255.00
2023-10-27T12:25:05.160Z,98259.40
2023-10-27T12:27:33.090Z,98261.40
2023-10-27T12:30:01.086Z,98255.60
2023-10-27T12:32:34.124Z,98250.40
2023-10-27T12:35:02.634Z,98249.20
2023-10-27T12:37:32.302Z,98240.40
2023-10-27T12:40:00.306Z,98241.20
2023-10-27T12:42:29.717Z,98242.40
2023-10-27T12:44:58.668Z,98235.20
2023-10-27T12:47:27.170Z,98234.20
2023-10-27T12:49:55.489Z,98235.40
2023-10-27T12:52:23.913Z,98233.00
2023-10-27T12:54:51.869Z,98232.80
2023-10-27T12:57:20.197Z,98231.00
2023-10-27T12:59:48.163Z,98229.80
2023-10-27T13:02:16.076Z,98233.80
2023-10-27T13:04:44.307Z,98233.80
2023-10-27T13:07:12.512Z,98233.00
2023-10-27T13:09:40.439Z,98230.80
2023-10-27T13:12:12.301Z,98231.80
2023-10-27T13:14:41.703Z,98231.80
2023-10-27T13:17:10.799Z,98233.40
2023-10-27T13:19:39.151Z,98232.60
2023-10-27T13:22:07.205Z,98237.20
2023-10-27T13:24:37.248Z,98234.60
2023-10-27T13:27:09.214Z,98231.60
2023-10-27T13:29:38.813Z,98231.80
2023-10-27T13:32:09.537Z,98230.40
2023-10-27T13:34:37.605Z,98227.00
2023-10-27T13:37:06.303Z,98221.00
2023-10-27T13:39:35.537Z,98216.20
2023-10-27T13:42:03.784Z,98215.60
2023-10-27T13:44:31.815Z,98212.40
2023-10-27T13:47:00.946Z,98213.00
2023-10-27T13:49:28.844Z,98210.80
2023-10-27T13:51:56.833Z,98210.60
2023-10-27T13:54:27.821Z,98211.80
2023-10-27T13:56:57.422Z,98211.60
2023-10-27T13:59:25.556Z,98205.40
2023-10-27T14:01:54.628Z,98202.60
2023-10-27T14:04:22.854Z,98199.20
2023-10-27T14:06:50.809Z,98198.60
2023-10-27T14:09:19.816Z,98195.80
2023-10-27T14:11:48.955Z,98196.60
2023-10-27T14:14:18.489Z,98195.20
2023-10-27T14:16:46.596Z,98194.40
2023-10-27T14:19:17.351Z,98191.80
2023-10-27T14:21:48.003Z,98189.60
2023-10-27T14:24:16.002Z,98185.60
2023-10-27T14:26:44.721Z,98180.20
2023-10-27T14:29:12.581Z,98182.00
2023-10-27T14:31:40.636Z,98179.40
2023-10-27T14:34:08.640Z,98179.80
2023-10-27T14:36:36.911Z,98174.20
2023-10-27T14:39:07.073Z,98177.60
2023-10-27T14:41:35.810Z,98178.60
2023-10-27T14:44:04.198Z,98173.00
2023-10-27T14:46:35.080Z,98176.40
2023-10-27T14:49:03.712Z,98178.20
2023-10-27T14:51:32.752Z,98171.80
2023-10-27T14:54:01.691Z,98176.20
2023-10-27T14:56:30.136Z,98171.00
2023-10-27T14:58:58.112Z,98168.80
2023-10-27T15:01:26.457Z,98166.00
2023-10-27T15:03:54.611Z,98169.40
2023-10-27T15:06:26.246Z,98175.00
2023-10-27T15:08:55.549Z,98176.80
2023-10-27T15:11:23.439Z,98183.60
2023-10-27T15:13:52.141Z,98182.00
2023-10-27T15:16:21.051Z,98184.20
2023-10-27T15:18:49.811Z,98184.80
2023-10-27T15:21:18.824Z,98180.80
2023-10-27T15:23:54.217Z,98181.00
2023-10-27T15:26:25.520Z,98183.00
2023-10-27T15:28:54.132Z,98187.00
2023-10-27T15:31:25.192Z,98189.00
2023-10-27T15:33:54.214Z,98188.80
2023-10-27T15:36:23.339Z,98184.60
2023-10-27T15:38:56.041Z,98180.20
2023-10-27T15:41:28.131Z,98181.60
2023-10-27T15:44:02.075Z,98183.80
2023-10-27T15:46:35.154Z,98181.40
2023-10-27T15:49:04.361Z,98181.80
2023-10-27T15:51:32.326Z,98177.60
2023-10-27T15:54:01.029Z,98179.00
2023-10-27T15:56:29.569Z,98185.20
2023-10-27T15:59:00.452Z,98188.00
2023-10-27T16:01:29.857Z,98188.80
2023-10-27T16:03:58.437Z,98193.20
2023-10-27T16:06:26.551Z,98195.80
2023-10-27T16:08:55.126Z,98194.00
2023-10-27T16:11:25.375Z,98192.60
2023-10-27T16:13:53.308Z,98197.00
2023-10-27T16:16:21.193Z,98200.80
2023-10-27T16:18:49.223Z,98198.00
2023-10-27T16:21:18.442Z,98205.60
2023-10-27T16:23:50.086Z,98205.00
2023-10-27T16:26:19.391Z,98210.40
2023-10-27T16:28:51.000Z,98212.60
2023-10-27T16:31:19.485Z,98212.60
2023-10-27T16:33:47.760Z,98206.00
2023-10-27T16:36:15.954Z,98203.40
2023-10-27T16:38:43.863Z,98203.40
2023-10-27T16:41:12.303Z,98207.00
2023-10-27T16:43:45.722Z,98203.80
2023-10-27T16:46:14.244Z,98203.20
2023-10-27T16:48:42.476Z,98209.40
2023-10-27T16:51:14.710Z,98202.20
2023-10-27T16:53:43.825Z,98200.80
2023-10-27T16:56:14.060Z,98206.60
2023-10-27T16:58:42.011Z,98204.60
2023-10-27T17:01:10.298Z,98204.80
2023-10-27T17:03:38.412Z,98203.40
2023-10-27T17:06:07.022Z,98202.00
2023-10-27T17:08:34.867Z,98203.60
2023-10-27T17:11:03.996Z,98197.60
2023-10-27T17:13:31.946Z,98194.60
2023-10-27T17:16:10.050Z,98196.60
2023-10-27T17:18:40.922Z,98191.40
2023-10-27T17:21:20.703Z,98190.80
2023-10-27T17:23:56.047Z,98196.80
2023-10-27T17:26:24.006Z,98198.00
2023-10-27T17:28:53.568Z,98200.00
2023-10-27T17:31:24.449Z,98205.00
2023-10-27T17:33:54.612Z,98208.20
2023-10-27T17:36:29.030Z,98211.00
2023-10-27T17:38:57.690Z,98210.80
2023-10-27T17:41:27.756Z,98209.20
2023-10-27T17:43:56.175Z,98208.40
2023-10-27T17:46:24.798Z,98213.00
2023-10-27T17:48:53.673Z,98215.40
2023-10-27T17:51:21.747Z,98215.00
2023-10-27T17:53:50.026Z,98211.60
2023-10-27T17:56:19.181Z,98215.80
2023-10-27T17:58:47.155Z,98213.20
2023-10-27T18:01:15.319Z,98212.60
2023-10-27T18:03:43.234Z,98214.20
2023-10-27T18:06:16.312Z,98214.60
2023-10-27T18:08:48.349Z,98213.60
2023-10-27T18:11:25.684Z,98216.00
2023-10-27T18:13:55.491Z,98213.20
2023-10-27T18:16:24.383Z,98212.00
2023-10-27T18:18:52.459Z,98214.00
2023-10-27T18:21:21.713Z,98218.80
2023-10-27T18:23:49.887Z,98222.00
2023-10-27T18:26:21.584Z,98217.60
2023-10-27T18:28:49.582Z,98218.40
2023-10-27T18:31:18.170Z,98218.00
2023-10-27T18:33:49.997Z,98223.40
2023-10-27T18:36:21.228Z,98221.80
2023-10-27T18:38:49.753Z,98224.80
2023-10-27T18:41:21.276Z,98224.40
2023-10-27T18:43:53.189Z,98222.80
2023-10-27T18:46:22.256Z,98225.60
2023-10-27T18:48:50.370Z,98224.40
2023-10-27T18:51:19.127Z,98226.20
2023-10-27T18:53:48.148Z,98227.80
2023-10-27T18:56:16.850Z,98225.40
2023-10-27T18:58:46.977Z,98230.80
2023-10-27T19:01:15.794Z,98233.60
2023-10-27T19:03:48.600Z,98234.80
2023-10-27T19:06:19.429Z,98243.60
2023-10-27T19:08:47.505Z,98244.20
2023-10-27T19:11:15.934Z,98239.60
2023-10-27T19:13:44.321Z,98244.60
2023-10-27T19:16:15.463Z,98246.00
2023-10-27T19:18:48.039Z,98246.00
2023-10-27T19:21:18.362Z,98249.80
2023-10-27T19:23:52.111Z,98250.40
2023-10-27T19:26:22.517Z,98255.20
2023-10-27T19:28:53.815Z,98257.40
2023-10-27T19:31:28.387Z,98255.80
2023-10-27T19:33:59.009Z,98256.20
2023-10-27T19:36:29.623Z,98258.20
2023-10-27T19:38:57.911Z,98258.60
2023-10-27T19:41:29.136Z,98262.00
2023-10-27T19:43:57.706Z,98262.60
2023-10-27T19:46:27.649Z,98265.40
2023-10-27T19:48:56.378Z,98267.20
2023-10-27T19:51:24.335Z,98266.00
2023-10-27T19:53:53.357Z,98274.00
2023-10-27T19:56:21.253Z,98270.20
2023-10-27T19:58:49.253Z,98272.40
2023-10-27T20:01:22.059Z,98268.20
2023-10-27T20:03:53.481Z,98274.20
2023-10-27T20:06:21.442Z,98275.20
2023-10-27T20:08:51.351Z,98271.60
2023-10-27T20:11:20.600Z,98274.80
2023-10-27T20:13:49.068Z,98273.40
2023-10-27T20:16:21.449Z,98282.60
2023-10-27T20:18:53.416Z,98282.40
2023-10-27T20:21:22.733Z,98286.00
2023-10-27T20:23:52.643Z,98291.20
2023-10-27T20:26:21.908Z,98290.00
2023-10-27T20:28:52.744Z,98295.40
2023-10-27T20:31:20.717Z,98299.40
2023-10-27T20:33:48.752Z,98309.40
2023-10-27T20:36:18.416Z,98308.60
2023-10-27T20:38:46.434Z,98305.00
2023-10-27T20:41:14.366Z,98305.20
2023-10-27T20:43:42.206Z,98312.20
2023-10-27T20:46:10.192Z,98311.20
2023-10-27T20:48:38.075Z,98314.20
2023-10-27T20:51:06.148Z,98319.60
2023-10-27T20:53:34.398Z,98320.20
2023-10-27T20:56:03.214Z,98321.60
2023-10-27T20:58:31.215Z,98323.20
2023-10-27T21:01:07.549Z,98327.40
2023-10-27T21:03:37.482Z,98331.20
2023-10-27T21:06:11.193Z,98334.20
2023-10-27T21:08:42.922Z,98328.00
2023-10-27T21:11:11.318Z,98324.40
2023-10-27T21:13:40.133Z,98327.60
2023-10-27T21:16:09.363Z,98329.80
2023-10-27T21:18:37.584Z,98327.80
2023-10-27T21:21:06.107Z,98331.00
2023-10-27T21:23:33.979Z,98332.20
2023-10-27T21:26:01.963Z,98336.80
2023-10-27T21:28:31.015Z,98345.20
2023-10-27T21:30:59.117Z,98344.20
2023-10-27T21:33:28.177Z,98338.00
2023-10-27T21:35:56.378Z,98341.00
2023-10-27T21:38:24.589Z,98338.00
2023-10-27T21:40:52.569Z,98343.20
2023-10-27T21:43:20.453Z,98346.20
2023-10-27T21:45:48.368Z,98354.80
2023-10-27T21:48:16.775Z,98353.80
2023-10-27T21:50:44.924Z,98357.60
2023-10-27T21:53:13.182Z,98361.60
2023-10-27T21:55:41.087Z,98365.20
2023-10-27T21:58:09.203Z,98370.00
2023-10-27T22:00:40.865Z,98373.60
2023-10-27T22:03:10.962Z,98373.00
2023-10-27T22:05:39.339Z,98374.40
2023-10-27T22:08:08.596Z,98377.60
2023-10-27T22:10:38.935Z,98385.40
2023-10-27T22:13:07.398Z,98384.60
2023-10-27T22:15:36.072Z,98385.00
2023-10-27T22:18:07.032Z,98388.00
2023-10-27T22:20:35.998Z,98388.00
2023-10-27T22:23:06.735Z,98389.60
2023-10-27T22:25:35.713Z,98392.00
2023-10-27T22:28:15.841Z,98392.60
2023-10-27T22:30:46.731Z,98396.20
2023-10-27T22:33:15.472Z,98404.60
2023-10-27T22:35:43.393Z,98406.20
2023-10-27T22:38:12.345Z,98409.40
2023-10-27T22:40:40.812Z,98411.60
2023-10-27T22:43:08.957Z,98417.20
2023-10-27T22:45:41.124Z,98418.80
2023-10-27T22:48:09.782Z,98416.80
2023-10-27T22:50:38.282Z,98418.20
2023-10-27T22:53:06.555Z,98416.20
2023-10-27T22:55:35.186Z,98418.40
2023-10-27T22:58:03.108Z,98425.20
2023-10-27T23:00:31.225Z,98429.00
2023-10-27T23:03:01.373Z,98430.60
2023-10-27T23:05:33.717Z,98429.00
2023-10-27T23:08:05.791Z,98432.40
2023-10-27T23:10:34.455Z,98435.00
2023-10-27T23:13:06.076Z,98435.20
2023-10-27T23:15:37.923Z,98442.80
2023-10-27T23:18:06.118Z,98446.20
2023-10-27T23:20:37.041Z,98445.20
2023-10-27T23:23:06.798Z,98447.00
2023-10-27T23:25:34.930Z,98447.20
2023-10-27T23:28:02.809Z,98449.00
2023-10-27T23:30:31.713Z,98452.60
2023-10-27T23:32:59.944Z,98455.60
2023-10-27T23:35:28.943Z,98455.20
2023-10-27T23:37:58.446Z,98459.80
2023-10-27T23:40:26.317Z,98463.40
2023-10-27T23:42:54.106Z,98466.00
2023-10-27T23:45:21.882Z,98464.20
2023-10-27T23:47:50.894Z,98465.20
2023-10-27T23:50:20.535Z,98466.00
2023-10-27T23:52:48.874Z,98468.40
2023-10-27T23:55:16.845Z,98470.40
2023-10-27T23:57:47.079Z,98474.80
